createdAt,value
2023-03-06T00:01:33.351Z,100200.53
2023-03-06T00:06:38.695Z,100205.56
2023-03-06T00:11:44.162Z,100217.88
2023-03-06T00:16:49.952Z,100217.63
2023-03-06T00:21:55.570Z,100214.91
2023-03-06T00:27:01.088Z,100217.91
2023-03-06T00:32:07.101Z,100209.22
2023-03-06T00:37:12.811Z,100193.16
2023-03-06T00:42:19.820Z,100201.06
2023-03-06T00:47:25.296Z,100201.13
2023-03-06T00:52:30.644Z,100203.44
2023-03-06T00:57:36.031Z,100194.81
2023-03-06T01:02:42.112Z,100198.69
2023-03-06T01:07:47.646Z,100199.88
2023-03-06T01:12:53.229Z,100202.56
2023-03-06T01:17:58.640Z,100201.72
2023-03-06T01:23:04.133Z,100211.53
2023-03-06T01:28:09.580Z,100218.50
2023-03-06T01:33:15.009Z,100220.00
2023-03-06T01:38:20.713Z,100224.13
2023-03-06T01:43:30.812Z,100221.06
2023-03-06T01:48:36.237Z,100223.03
2023-03-06T01:53:44.219Z,100233.03
2023-03-06T01:58:50.319Z,100234.22
2023-03-06T02:03:56.506Z,100242.97
2023-03-06T02:09:02.696Z,100254.56
2023-03-06T02:14:08.129Z,100260.16
2023-03-06T02:19:57.450Z,100249.84
2023-03-06T02:25:34.524Z,100257.66
2023-03-06T02:30:40.703Z,100262.63
2023-03-06T02:36:03.117Z,100262.81
2023-03-06T02:41:09.866Z,100266.53
2023-03-06T02:46:15.779Z,100254.81
2023-03-06T02:51:23.728Z,100262.50
2023-03-06T02:56:29.345Z,100257.81
2023-03-06T03:01:36.039Z,100261.25
2023-03-06T03:06:42.139Z,100264.09
2023-03-06T03:11:49.058Z,100257.69
2023-03-06T03:16:54.846Z,100257.88
2023-03-06T03:22:00.292Z,100255.19
2023-03-06T03:27:05.907Z,100258.63
2023-03-06T03:32:11.841Z,100265.09
2023-03-06T03:37:23.090Z,100258.59
2023-03-06T03:42:30.232Z,100263.94
2023-03-06T03:47:35.895Z,100255.19
2023-03-06T03:52:41.503Z,100266.34
2023-03-06T03:57:47.712Z,100266.94
2023-03-06T04:02:53.438Z,100257.19
2023-03-06T04:08:07.524Z,100250.69
2023-03-06T04:13:21.684Z,100247.91
2023-03-06T04:18:29.131Z,100255.88
2023-03-06T04:23:40.108Z,100245.53
2023-03-06T04:28:45.923Z,100252.00
2023-03-06T04:33:50.392Z,100249.75
2023-03-06T04:38:55.333Z,100224.75
2023-03-06T04:43:59.800Z,100215.75
2023-03-06T04:49:05.247Z,100224.94
2023-03-06T04:54:10.350Z,100215.72
2023-03-06T04:59:15.917Z,100225.06
2023-03-06T05:04:20.618Z,100207.50
2023-03-06T05:09:25.499Z,100211.09
2023-03-06T05:14:31.377Z,100199.84
2023-03-06T05:19:36.295Z,100211.56
2023-03-06T05:24:40.565Z,100207.38
2023-03-06T05:29:45.123Z,100199.66
2023-03-06T05:34:55.341Z,100192.69
2023-03-06T05:39:59.739Z,100192.47
2023-03-06T05:45:05.246Z,100182.97
2023-03-06T05:50:11.113Z,100184.28
2023-03-06T05:55:16.196Z,100176.28
2023-03-06T06:00:21.459Z,100173.53
2023-03-06T06:05:25.699Z,100179.97
2023-03-06T06:10:30.230Z,100172.25
2023-03-06T06:15:34.581Z,100159.84
2023-03-06T06:20:38.871Z,100160.06
2023-03-06T06:25:43.069Z,100161.88
2023-03-06T06:30:47.299Z,100162.09
2023-03-06T06:35:52.539Z,100163.38
2023-03-06T06:41:30.736Z,100165.97
2023-03-06T06:47:02.632Z,100171.47
2023-03-06T06:51:45.723Z,100164.50
2023-03-06T06:56:50.098Z,100159.47
2023-03-06T07:01:54.380Z,100165.28
2023-03-06T07:07:00.818Z,100159.47
2023-03-06T07:12:05.140Z,100171.44
2023-03-06T07:17:10.488Z,100173.53
2023-03-06T07:22:14.629Z,100179.16
2023-03-06T07:27:23.668Z,100164.91
2023-03-06T07:32:28.701Z,100164.44
2023-03-06T07:37:36.550Z,100168.31
2023-03-06T07:42:40.715Z,100171.22
2023-03-06T07:47:51.349Z,100163.00
2023-03-06T07:52:55.601Z,100148.88
2023-03-06T07:57:59.764Z,100145.50
2023-03-06T08:03:04.068Z,100150.94
2023-03-06T08:08:08.716Z,100159.00
2023-03-06T08:13:12.916Z,100159.84
2023-03-06T08:18:17.196Z,100151.59
2023-03-06T08:23:21.292Z,100164.00
2023-03-06T08:28:25.665Z,100169.00
2023-03-06T08:33:29.903Z,100162.38
2023-03-06T08:38:34.112Z,100147.91
2023-03-06T08:43:38.367Z,100143.59
2023-03-06T08:48:43.442Z,100143.41
2023-03-06T08:53:48.293Z,100150.00
2023-03-06T08:58:53.687Z,100150.75
2023-03-06T09:04:00.467Z,100141.66
2023-03-06T09:09:06.295Z,100135.38
2023-03-06T09:14:10.593Z,100144.47
2023-03-06T09:19:14.752Z,100139.84
2023-03-06T09:24:18.932Z,100136.88
2023-03-06T09:29:23.090Z,100141.22
2023-03-06T09:34:28.310Z,100137.81
2023-03-06T09:39:32.485Z,100131.13
2023-03-06T09:44:41.620Z,100133.38
2023-03-06T09:50:05.580Z,100119.19
2023-03-06T09:55:29.724Z,100114.25
2023-03-06T10:00:39.301Z,100108.66
2023-03-06T10:05:49.873Z,100103.00
2023-03-06T10:11:03.018Z,100069.50
2023-03-06T10:16:30.578Z,100098.97
2023-03-06T10:21:40.988Z,100091.38
2023-03-06T10:26:55.750Z,100089.22
2023-03-06T10:32:13.245Z,100078.53
2023-03-06T10:37:22.942Z,100074.41
2023-03-06T10:42:28.866Z,100076.31
2023-03-06T10:47:38.086Z,100078.22
2023-03-06T10:52:42.194Z,100070.88
2023-03-06T10:57:47.566Z,100067.19
2023-03-06T11:03:07.275Z,100062.88
2023-03-06T11:08:23.128Z,100066.31
2023-03-06T11:13:30.729Z,100066.75
2023-03-06T11:18:39.761Z,100060.56
2023-03-06T11:23:47.146Z,100076.41
2023-03-06T11:29:03.579Z,100058.47
2023-03-06T11:34:24.243Z,100076.03
2023-03-06T11:39:48.510Z,100074.19
2023-03-06T11:45:05.547Z,100088.72
2023-03-06T11:50:33.618Z,100089.56
2023-03-06T11:55:49.991Z,100092.59
2023-03-06T12:00:59.602Z,100092.84
2023-03-06T12:06:11.897Z,100086.88
2023-03-06T12:11:24.674Z,100093.97
2023-03-06T12:16:56.398Z,100089.97
2023-03-06T12:22:29.113Z,100085.88
2023-03-06T12:28:04.049Z,100096.03
2023-03-06T12:33:46.418Z,100094.34
2023-03-06T12:39:15.090Z,100099.50
2023-03-06T12:44:43.863Z,100095.31
2023-03-06T12:50:18.853Z,100095.56
2023-03-06T12:55:26.193Z,100096.91
2023-03-06T13:00:36.450Z,100107.09
2023-03-06T13:05:56.662Z,100098.69
2023-03-06T13:11:28.432Z,100104.38
2023-03-06T13:16:35.026Z,100099.56
2023-03-06T13:21:43.524Z,100107.72
2023-03-06T13:26:48.732Z,100109.75
2023-03-06T13:31:55.968Z,100115.34
2023-03-06T13:37:28.537Z,100122.34
2023-03-06T13:42:32.716Z,100120.63
2023-03-06T13:48:09.709Z,100114.59
2023-03-06T13:53:19.272Z,100121.44
2023-03-06T13:58:46.316Z,100123.38
2023-03-06T14:04:05.268Z,100138.75
2023-03-06T14:09:46.926Z,100149.88
2023-03-06T14:15:00.996Z,100153.06
2023-03-06T14:20:19.395Z,100157.06
2023-03-06T14:25:32.842Z,100154.06
2023-03-06T14:30:38.534Z,100162.25
2023-03-06T14:35:56.641Z,100165.09
2023-03-06T14:41:03.323Z,100171.47
2023-03-06T14:46:20.749Z,100194.56
2023-03-06T14:51:35.457Z,100184.16
2023-03-06T14:56:43.658Z,100186.94
2023-03-06T15:02:23.109Z,100207.22
2023-03-06T15:07:32.709Z,100223.31
2023-03-06T15:12:39.496Z,100231.53
2023-03-06T15:17:48.760Z,100239.47
2023-03-06T15:22:58.602Z,100241.53
2023-03-06T15:28:36.432Z,100255.75
2023-03-06T15:33:43.154Z,100252.78
2023-03-06T15:38:49.939Z,100270.97
2023-03-06T15:43:56.959Z,100279.16
2023-03-06T15:49:04.796Z,100281.84
2023-03-06T15:54:12.981Z,100285.06
2023-03-06T15:59:35.748Z,100291.97
2023-03-06T16:04:41.325Z,100294.03
2023-03-06T16:09:48.590Z,100294.38
2023-03-06T16:15:01.590Z,100303.25
2023-03-06T16:20:23.045Z,100310.63
2023-03-06T16:25:32.314Z,100316.66
2023-03-06T16:30:40.889Z,100315.47
2023-03-06T16:35:47.871Z,100317.50
2023-03-06T16:40:56.020Z,100326.38
2023-03-06T16:46:06.498Z,100330.09
2023-03-06T16:51:18.893Z,100333.47
2023-03-06T16:56:25.699Z,100336.50
2023-03-06T17:01:31.480Z,100350.13
2023-03-06T17:06:42.510Z,100352.41
2023-03-06T17:11:51.044Z,100351.44
2023-03-06T17:17:22.522Z,100346.25
2023-03-06T17:22:29.538Z,100367.94
2023-03-06T17:27:36.127Z,100371.94
2023-03-06T17:32:46.829Z,100373.66
2023-03-06T17:37:53.512Z,100385.09
2023-03-06T17:43:03.111Z,100399.81
2023-03-06T17:48:34.419Z,100396.84
2023-03-06T17:53:40.733Z,100411.38
2023-03-06T17:58:46.352Z,100418.03
2023-03-06T18:03:52.489Z,100395.56
2023-03-06T18:09:02.056Z,100419.78
2023-03-06T18:14:08.233Z,100426.03
2023-03-06T18:19:16.409Z,100428.91
2023-03-06T18:24:23.050Z,100445.22
2023-03-06T18:29:34.169Z,100433.94
2023-03-06T18:34:40.829Z,100444.59
2023-03-06T18:39:46.606Z,100437.25
2023-03-06T18:44:52.205Z,100438.97
2023-03-06T18:50:03.348Z,100442.63
2023-03-06T18:55:09.590Z,100450.25
2023-03-06T19:00:15.815Z,100449.56
2023-03-06T19:05:28.921Z,100424.38
2023-03-06T19:10:39.765Z,100453.09
2023-03-06T19:15:50.087Z,100462.00
2023-03-06T19:21:16.698Z,100468.28
2023-03-06T19:26:22.725Z,100463.50
2023-03-06T19:31:29.368Z,100464.84
2023-03-06T19:36:35.414Z,100469.06
2023-03-06T19:41:43.282Z,100469.75
2023-03-06T19:46:48.685Z,100471.00
2023-03-06T19:51:55.714Z,100479.16
2023-03-06T19:57:02.605Z,100481.22
2023-03-06T20:02:12.283Z,100488.84
2023-03-06T20:07:17.714Z,100486.88
2023-03-06T20:12:24.501Z,100486.56
2023-03-06T20:17:33.392Z,100485.09
2023-03-06T20:22:38.945Z,100496.91
2023-03-06T20:27:44.427Z,100490.06
2023-03-06T20:32:49.913Z,100488.19
2023-03-06T20:37:55.688Z,100485.63
2023-03-06T20:43:01.061Z,100488.50
2023-03-06T20:48:07.814Z,100484.91
2023-03-06T20:53:13.300Z,100489.84
2023-03-06T20:58:18.993Z,100498.63
2023-03-06T21:03:26.215Z,100502.44
2023-03-06T21:08:32.328Z,100506.50
2023-03-06T21:13:37.868Z,100509.75
2023-03-06T21:18:43.478Z,100510.03
2023-03-06T21:23:49.685Z,100513.72
2023-03-06T21:28:57.688Z,100514.78
2023-03-06T21:34:28.520Z,100520.34
2023-03-06T21:39:34.016Z,100521.41
2023-03-06T21:44:39.436Z,100525.84
2023-03-06T21:49:48.759Z,100525.69
2023-03-06T21:54:53.811Z,100540.66
2023-03-06T21:59:59.270Z,100541.97
2023-03-06T22:05:05.407Z,100545.97
2023-03-06T22:10:14.916Z,100552.06
2023-03-06T22:15:22.365Z,100558.84
2023-03-06T22:20:27.816Z,100555.03
2023-03-06T22:25:35.592Z,100560.63
2023-03-06T22:30:42.428Z,100561.44
2023-03-06T22:35:47.970Z,100565.53
2023-03-06T22:40:58.752Z,100568.56
2023-03-06T22:46:07.940Z,100567.25
2023-03-06T22:51:16.546Z,100571.47
2023-03-06T22:56:23.381Z,100577.25
2023-03-06T23:01:31.303Z,100582.66
2023-03-06T23:06:39.176Z,100584.94
2023-03-06T23:11:44.615Z,100583.50
2023-03-06T23:17:09.903Z,100582.13
2023-03-06T23:22:34.939Z,100584.81
2023-03-06T23:28:00.166Z,100592.84
2023-03-06T23:33:05.854Z,100592.03
2023-03-06T23:38:11.995Z,100592.56
2023-03-06T23:43:17.770Z,100593.03
2023-03-06T23:48:23.562Z,100598.28
2023-03-06T23:53:28.959Z,100599.16
2023-03-06T23:58:34.701Z,100601.22
